METAR Data
IDs: Format: Raw Decoded Include TAF

Data at: 1258 UTC 07 Jul 2020

KCKV 071252Z AUTO 00000KT 10SM CLR 25/23 A3001 RMK AO2 SLP156 T02500228
KCKV 071152Z AUTO 00000KT 9SM CLR 24/22 A2999 RMK AO2 SLP151 70015 T02390222 10244 20217 53011
KCKV 071052Z AUTO 00000KT 6SM BR CLR 22/22 A2998 RMK AO2 SLP145 T02170217
KCKV 070952Z AUTO 00000KT 8SM CLR 22/22 A2997 RMK AO2 SLP141 T02220217
KCKV 070852Z AUTO 00000KT 10SM CLR 22/22 A2996 RMK AO2 SLP140 T02220217 56006
KCKV 070752Z AUTO 00000KT 10SM CLR 23/22 A2997 RMK AO2 SLP141 T02280217
KCKV 070652Z AUTO 00000KT 10SM CLR 23/22 A2997 RMK AO2 SLP143 T02330222
KCKV 070552Z AUTO 00000KT 10SM CLR 24/22 A2998 RMK AO2 SLP146 T02440222 10311 20239 403280206 50004
KCKV 070452Z AUTO 00000KT 10SM CLR 24/23 A3000 RMK AO2 SLP152 T02440228
KCKV 070352Z AUTO 20003KT 10SM FEW039 26/23 A3000 RMK AO2 LTG DSNT S AND SW SLP153 T02560228
KCKV 070309Z AUTO 00000KT 10SM CLR 26/23 A2998 RMK AO2 LTG DSNT S AND SW T02560228
KCKV 070252Z AUTO 04004KT 10SM VCTS FEW041 26/23 A2997 RMK AO2 LTG DSNT S AND SW SLP143 T02610228 50008
KCKV 070152Z AUTO 00000KT 10SM CLR 27/23 A2998 RMK AO2 LTG DSNT SW SLP145 T02720228
KCKV 070052Z AUTO 03004KT 10SM CLR 29/22 A2996 RMK AO2 SLP138 T02940222
KCKV 062352Z AUTO 07004KT 10SM CLR 31/21 A2995 RMK AO2 LTG DSNT S SLP134 T03110211 10328 20300 55006
KCKV 062252Z AUTO 02006KT 10SM CLR 32/23 A2994 RMK AO2 LTG DSNT SE AND S SLP133 T03170228
KCKV 062152Z AUTO 00000KT 10SM CLR 32/22 A2995 RMK AO2 SLP136 T03220217
KCKV 062052Z AUTO VRB03KT 10SM CLR 32/23 A2996 RMK AO2 SLP140 T03170228 58013
KCKV 061952Z AUTO 11004KT 10SM CLR 31/23 A2999 RMK AO2 SLP148 T03110228
KCKV 061852Z AUTO 12006KT 10SM CLR 31/23 A2999 RMK AO2 SLP149 T03110233
KCKV 061752Z AUTO 13007KT 10SM CLR 30/23 A3000 RMK AO2 SLP153 60015 T03000233 10300 20211 58010
KCKV 061652Z AUTO VRB03KT 10SM CLR 28/22 A3002 RMK AO2 SLP161 T02780222
KCKV 061552Z AUTO 08005KT 10SM CLR 26/21 A3003 RMK AO2 SLP165 T02560211
KCKV 061452Z AUTO 00000KT 10SM FEW120 23/21 A3003 RMK AO2 SLP165 60015 T02280211 53003
KCKV 061352Z AUTO 09006KT 10SM FEW100 SCT110 22/21 A3001 RMK AO2 LTG DSNT E RAE19 SLP158 P0001 T02170206
KCKV 061252Z AUTO 00000KT 4SM RA BR OVC100 21/21 A3002 RMK AO2 LTG DSNT NE AND E TSB13E28 SLP161 P0014 T02110206
KCKV 061241Z AUTO 06003KT 3SM VCTS RA BR BKN095 OVC120 21/21 A3002 RMK AO2 LTG DSNT E TSB13E28 P0011 T02110206
KCKV 061235Z AUTO 00000KT 2SM RA BR BKN100 OVC120 22/20 A3003 RMK AO2 LTG DSNT E AND S TSB13E28 P0009 T02170200
KCKV 061228Z AUTO 00000KT 2SM VCTS RA BR BKN100 OVC120 22/21 A3003 RMK AO2 LTG DSNT E-S TSB13E28 P0007 T02170206
KCKV 061219Z AUTO 00000KT 5SM TSRA BR OVC110 22/21 A3004 RMK AO2 LTG DSNT NE-S TSB13 P0004 T02170206
KCKV 061152Z AUTO 17003KT 4SM VCTS RA BR BKN100 OVC120 22/21 A3002 RMK AO2 LTG DSNT E-SW RAB19 SLP161 P0003 60003 70049 T02170206 10222 20206 53017
KCKV 061052Z AUTO 15006KT 5SM VCTS BR FEW004 SCT050 BKN065 21/21 A3000 RMK AO2 LTG DSNT NE-S SLP155 T02110211
KCKV 061039Z AUTO 19005KT 5SM VCTS BR SCT004 BKN065 21/21 A2999 RMK AO2 LTG DSNT E-SW T02110211
KCKV 061003Z AUTO 00000KT 7SM VCTS CLR 21/21 A2997 RMK AO2 LTG DSNT E-SW T02110211
KCKV 060952Z AUTO 30003KT 7SM CLR 21/21 A2997 RMK AO2 LTG DSNT E AND S SLP144 T02110206
KCKV 060852Z AUTO 00000KT 7SM CLR 21/21 A2997 RMK AO2 SLP142 T02110206 53006
KCKV 060752Z AUTO 04004KT 8SM CLR 21/21 A2996 RMK AO2 SLP137 T02110211
KCKV 060652Z AUTO 09004KT 10SM CLR 21/21 A2996 RMK AO2 SLP137 T02110211
KCKV 060552Z AUTO 08005KT 10SM CLR 22/21 A2995 RMK AO2 SLP136 T02220211 10233 20217 403220206 56005
KCKV 060452Z AUTO 00000KT 7SM CLR 22/22 A2996 RMK AO2 SLP139 T02170217
KCKV 060352Z AUTO 00000KT 8SM CLR 22/22 A2995 RMK AO2 SLP135 T02220217
KCKV 060252Z AUTO 17003KT 9SM FEW120 22/22 A2997 RMK AO2 SLP141 T02170217 51015
KCKV 060152Z AUTO 06004KT 10SM CLR 22/21 A2997 RMK AO2 SLP142 T02220211